sensor_id;sensor_type;location;lat;lon;timestamp;temperature;humidity
30308;DHT22;17114;52.314;8.910;2023-07-13T00:00:42;15.50;99.90
30308;DHT22;17114;52.314;8.910;2023-07-13T00:03:09;15.50;99.90
30308;DHT22;17114;52.314;8.910;2023-07-13T00:05:40;15.50;99.90
30308;DHT22;17114;52.314;8.910;2023-07-13T00:08:08;15.60;99.90
30308;DHT22;17114;52.314;8.910;2023-07-13T00:10:39;15.50;99.90
30308;DHT22;17114;52.314;8.910;2023-07-13T00:13:07;15.50;99.90
30308;DHT22;17114;52.314;8.910;2023-07-13T00:15:34;15.40;99.90
30308;DHT22;17114;52.314;8.910;2023-07-13T00:18:02;15.50;99.90
30308;DHT22;17114;52.314;8.910;2023-07-13T00:20:29;15.40;99.90
30308;DHT22;17114;52.314;8.910;2023-07-13T00:22:59;15.40;99.90
30308;DHT22;17114;52.314;8.910;2023-07-13T00:25:26;15.40;99.90
30308;DHT22;17114;52.314;8.910;2023-07-13T00:27:56;15.30;99.90
30308;DHT22;17114;52.314;8.910;2023-07-13T00:30:23;15.40;99.90
30308;DHT22;17114;52.314;8.910;2023-07-13T00:32:50;15.30;99.90
30308;DHT22;17114;52.314;8.910;2023-07-13T00:35:31;15.40;99.90
30308;DHT22;17114;52.314;8.910;2023-07-13T00:37:58;15.40;99.90
30308;DHT22;17114;52.314;8.910;2023-07-13T00:40:24;15.40;99.90
30308;DHT22;17114;52.314;8.910;2023-07-13T00:42:52;15.40;99.90
30308;DHT22;17114;52.314;8.910;2023-07-13T00:47:46;15.40;99.90
30308;DHT22;17114;52.314;8.910;2023-07-13T00:50:15;15.40;99.90
30308;DHT22;17114;52.314;8.910;2023-07-13T00:52:46;15.50;99.90
30308;DHT22;17114;52.314;8.910;2023-07-13T00:55:14;15.40;99.90
30308;DHT22;17114;52.314;8.910;2023-07-13T00:57:42;15.40;99.90
30308;DHT22;17114;52.314;8.910;2023-07-13T01:00:11;15.40;99.90
30308;DHT22;17114;52.314;8.910;2023-07-13T01:02:41;15.40;99.90
30308;DHT22;17114;52.314;8.910;2023-07-13T01:05:14;15.40;99.90
30308;DHT22;17114;52.314;8.910;2023-07-13T01:07:43;15.30;99.90
30308;DHT22;17114;52.314;8.910;2023-07-13T01:10:12;15.40;99.90
30308;DHT22;17114;52.314;8.910;2023-07-13T01:12:39;15.30;99.90
30308;DHT22;17114;52.314;8.910;2023-07-13T01:18:00;15.40;99.90
30308;DHT22;17114;52.314;8.910;2023-07-13T01:20:27;15.40;99.90
30308;DHT22;17114;52.314;8.910;2023-07-13T01:22:54;15.40;99.90
30308;DHT22;17114;52.314;8.910;2023-07-13T01:25:21;15.40;99.90
30308;DHT22;17114;52.314;8.910;2023-07-13T01:27:48;15.40;99.90
30308;DHT22;17114;52.314;8.910;2023-07-13T01:30:15;15.40;99.90
30308;DHT22;17114;52.314;8.910;2023-07-13T01:32:42;15.40;99.90
30308;DHT22;17114;52.314;8.910;2023-07-13T01:35:09;15.40;99.90
30308;DHT22;17114;52.314;8.910;2023-07-13T01:37:36;15.30;99.90
30308;DHT22;17114;52.314;8.910;2023-07-13T01:40:04;15.30;99.90
30308;DHT22;17114;52.314;8.910;2023-07-13T01:42:31;15.30;99.90
30308;DHT22;17114;52.314;8.910;2023-07-13T01:44:57;15.30;99.90
30308;DHT22;17114;52.314;8.910;2023-07-13T01:47:24;15.30;99.90
30308;DHT22;17114;52.314;8.910;2023-07-13T01:49:52;15.30;99.90
30308;DHT22;17114;52.314;8.910;2023-07-13T01:52:19;15.40;99.90
30308;DHT22;17114;52.314;8.910;2023-07-13T01:54:46;15.40;99.90
30308;DHT22;17114;52.314;8.910;2023-07-13T01:57:13;15.40;99.90
30308;DHT22;17114;52.314;8.910;2023-07-13T01:59:40;15.50;99.90
30308;DHT22;17114;52.314;8.910;2023-07-13T02:02:07;15.50;99.90
30308;DHT22;17114;52.314;8.910;2023-07-13T02:04:34;15.60;99.90
30308;DHT22;17114;52.314;8.910;2023-07-13T02:07:01;15.60;99.90
30308;DHT22;17114;52.314;8.910;2023-07-13T02:09:28;15.70;99.90
30308;DHT22;17114;52.314;8.910;2023-07-13T02:11:55;15.70;99.90
30308;DHT22;17114;52.314;8.910;2023-07-13T02:14:22;15.80;99.90
30308;DHT22;17114;52.314;8.910;2023-07-13T02:16:49;15.80;99.90
30308;DHT22;17114;52.314;8.910;2023-07-13T02:19:15;15.90;99.90
30308;DHT22;17114;52.314;8.910;2023-07-13T02:21:43;15.90;99.90
30308;DHT22;17114;52.314;8.910;2023-07-13T02:24:09;15.90;99.90
30308;DHT22;17114;52.314;8.910;2023-07-13T02:26:36;15.90;99.90
30308;DHT22;17114;52.314;8.910;2023-07-13T02:29:03;16.00;99.90
30308;DHT22;17114;52.314;8.910;2023-07-13T02:31:30;16.00;99.90
30308;DHT22;17114;52.314;8.910;2023-07-13T02:33:57;16.00;99.90
30308;DHT22;17114;52.314;8.910;2023-07-13T02:36:23;16.00;99.90
30308;DHT22;17114;52.314;8.910;2023-07-13T02:38:50;16.00;99.90
30308;DHT22;17114;52.314;8.910;2023-07-13T02:41:17;16.00;99.90
30308;DHT22;17114;52.314;8.910;2023-07-13T02:43:44;16.00;99.90
30308;DHT22;17114;52.314;8.910;2023-07-13T02:46:11;16.00;99.90
30308;DHT22;17114;52.314;8.910;2023-07-13T02:48:39;15.90;99.90
30308;DHT22;17114;52.314;8.910;2023-07-13T02:51:06;15.90;99.90
30308;DHT22;17114;52.314;8.910;2023-07-13T02:53:34;15.90;99.90
30308;DHT22;17114;52.314;8.910;2023-07-13T02:56:03;15.80;99.90
30308;DHT22;17114;52.314;8.910;2023-07-13T02:58:31;15.80;99.90
30308;DHT22;17114;52.314;8.910;2023-07-13T03:00:58;15.70;99.90
30308;DHT22;17114;52.314;8.910;2023-07-13T03:03:27;15.70;99.90
30308;DHT22;17114;52.314;8.910;2023-07-13T03:05:59;15.70;99.90
30308;DHT22;17114;52.314;8.910;2023-07-13T03:08:27;15.70;99.90
30308;DHT22;17114;52.314;8.910;2023-07-13T03:11:09;15.70;99.90
30308;DHT22;17114;52.314;8.910;2023-07-13T03:13:40;15.60;99.90
30308;DHT22;17114;52.314;8.910;2023-07-13T03:16:09;15.60;99.90
30308;DHT22;17114;52.314;8.910;2023-07-13T03:18:37;15.60;99.90
30308;DHT22;17114;52.314;8.910;2023-07-13T03:21:05;15.60;99.90
30308;DHT22;17114;52.314;8.910;2023-07-13T03:23:32;15.60;99.90
30308;DHT22;17114;52.314;8.910;2023-07-13T03:26:07;15.50;99.90
30308;DHT22;17114;52.314;8.910;2023-07-13T03:28:35;15.50;99.90
30308;DHT22;17114;52.314;8.910;2023-07-13T03:31:13;15.50;99.90
30308;DHT22;17114;52.314;8.910;2023-07-13T03:33:40;15.30;99.90
30308;DHT22;17114;52.314;8.910;2023-07-13T03:36:14;15.40;99.90
30308;DHT22;17114;52.314;8.910;2023-07-13T03:38:42;15.40;99.90
30308;DHT22;17114;52.314;8.910;2023-07-13T03:41:09;15.40;99.90
30308;DHT22;17114;52.314;8.910;2023-07-13T03:43:36;15.30;99.90
30308;DHT22;17114;52.314;8.910;2023-07-13T03:46:03;15.30;99.90
30308;DHT22;17114;52.314;8.910;2023-07-13T03:48:30;15.30;99.90
30308;DHT22;17114;52.314;8.910;2023-07-13T03:50:56;15.30;99.90
30308;DHT22;17114;52.314;8.910;2023-07-13T03:53:23;15.30;99.90
30308;DHT22;17114;52.314;8.910;2023-07-13T03:55:50;15.40;99.90
30308;DHT22;17114;52.314;8.910;2023-07-13T04:00:55;15.50;99.90
30308;DHT22;17114;52.314;8.910;2023-07-13T04:03:22;15.60;99.90
30308;DHT22;17114;52.314;8.910;2023-07-13T04:05:49;15.70;99.90
30308;DHT22;17114;52.314;8.910;2023-07-13T04:08:16;15.70;99.90
30308;DHT22;17114;52.314;8.910;2023-07-13T04:10:43;15.80;99.90
30308;DHT22;17114;52.314;8.910;2023-07-13T04:13:10;15.80;99.90
30308;DHT22;17114;52.314;8.910;2023-07-13T04:15:38;15.80;99.90
30308;DHT22;17114;52.314;8.910;2023-07-13T04:18:05;15.80;99.90
30308;DHT22;17114;52.314;8.910;2023-07-13T04:20:33;15.90;99.90
30308;DHT22;17114;52.314;8.910;2023-07-13T04:23:00;16.00;99.90
30308;DHT22;17114;52.314;8.910;2023-07-13T04:25:27;16.00;99.90
30308;DHT22;17114;52.314;8.910;2023-07-13T04:27:54;16.00;99.90
30308;DHT22;17114;52.314;8.910;2023-07-13T04:30:21;16.10;99.90
30308;DHT22;17114;52.314;8.910;2023-07-13T04:32:50;16.20;99.90
30308;DHT22;17114;52.314;8.910;2023-07-13T04:35:22;16.20;99.90
30308;DHT22;17114;52.314;8.910;2023-07-13T04:37:49;16.30;99.90
30308;DHT22;17114;52.314;8.910;2023-07-13T04:40:17;16.50;99.90
30308;DHT22;17114;52.314;8.910;2023-07-13T04:42:45;16.70;99.90
30308;DHT22;17114;52.314;8.910;2023-07-13T04:45:13;17.00;99.90
30308;DHT22;17114;52.314;8.910;2023-07-13T04:47:41;17.40;99.90
30308;DHT22;17114;52.314;8.910;2023-07-13T04:50:09;17.60;99.90
30308;DHT22;17114;52.314;8.910;2023-07-13T04:52:37;17.60;99.90
30308;DHT22;17114;52.314;8.910;2023-07-13T04:55:04;17.50;99.90
30308;DHT22;17114;52.314;8.910;2023-07-13T04:57:31;17.60;99.90
30308;DHT22;17114;52.314;8.910;2023-07-13T04:59:59;18.00;99.90
30308;DHT22;17114;52.314;8.910;2023-07-13T05:02:31;18.50;99.90
30308;DHT22;17114;52.314;8.910;2023-07-13T05:04:59;19.00;99.90
30308;DHT22;17114;52.314;8.910;2023-07-13T05:07:27;19.50;99.90
30308;DHT22;17114;52.314;8.910;2023-07-13T05:09:53;19.60;99.90
30308;DHT22;17114;52.314;8.910;2023-07-13T05:12:20;19.50;99.90
30308;DHT22;17114;52.314;8.910;2023-07-13T05:14:47;19.30;99.90
30308;DHT22;17114;52.314;8.910;2023-07-13T05:17:15;19.20;99.90
30308;DHT22;17114;52.314;8.910;2023-07-13T05:19:43;19.30;99.90
30308;DHT22;17114;52.314;8.910;2023-07-13T05:22:09;19.30;99.90
30308;DHT22;17114;52.314;8.910;2023-07-13T05:24:36;19.40;99.90
30308;DHT22;17114;52.314;8.910;2023-07-13T05:27:03;19.60;99.90
30308;DHT22;17114;52.314;8.910;2023-07-13T05:29:30;20.00;99.90
30308;DHT22;17114;52.314;8.910;2023-07-13T05:31:57;20.30;99.90
30308;DHT22;17114;52.314;8.910;2023-07-13T05:34:24;20.60;99.90
30308;DHT22;17114;52.314;8.910;2023-07-13T05:36:51;20.40;99.90
30308;DHT22;17114;52.314;8.910;2023-07-13T05:39:19;20.50;99.90
30308;DHT22;17114;52.314;8.910;2023-07-13T05:41:45;20.60;99.90
30308;DHT22;17114;52.314;8.910;2023-07-13T05:44:12;20.80;99.90
30308;DHT22;17114;52.314;8.910;2023-07-13T05:46:39;20.70;99.90
30308;DHT22;17114;52.314;8.910;2023-07-13T05:49:06;20.50;99.90
30308;DHT22;17114;52.314;8.910;2023-07-13T05:51:33;20.50;99.90
30308;DHT22;17114;52.314;8.910;2023-07-13T05:53:59;20.50;99.90
30308;DHT22;17114;52.314;8.910;2023-07-13T05:56:26;20.50;99.90
30308;DHT22;17114;52.314;8.910;2023-07-13T05:58:53;20.50;99.90
30308;DHT22;17114;52.314;8.910;2023-07-13T06:01:20;20.60;99.90
30308;DHT22;17114;52.314;8.910;2023-07-13T06:03:47;21.00;99.90
30308;DHT22;17114;52.314;8.910;2023-07-13T06:06:15;21.40;99.90
30308;DHT22;17114;52.314;8.910;2023-07-13T06:08:42;21.70;99.90
30308;DHT22;17114;52.314;8.910;2023-07-13T06:11:23;21.70;99.90
30308;DHT22;17114;52.314;8.910;2023-07-13T06:13:50;21.90;99.90
30308;DHT22;17114;52.314;8.910;2023-07-13T06:16:17;21.90;99.90
30308;DHT22;17114;52.314;8.910;2023-07-13T06:18:44;21.70;99.90
30308;DHT22;17114;52.314;8.910;2023-07-13T06:21:17;21.80;99.90
30308;DHT22;17114;52.314;8.910;2023-07-13T06:23:45;21.90;99.90
30308;DHT22;17114;52.314;8.910;2023-07-13T06:26:14;21.90;99.90
30308;DHT22;17114;52.314;8.910;2023-07-13T06:28:41;21.90;99.90
30308;DHT22;17114;52.314;8.910;2023-07-13T06:31:10;21.90;99.90
30308;DHT22;17114;52.314;8.910;2023-07-13T06:33:37;21.80;99.90
30308;DHT22;17114;52.314;8.910;2023-07-13T06:36:05;21.90;99.90
30308;DHT22;17114;52.314;8.910;2023-07-13T06:38:32;22.00;99.90
30308;DHT22;17114;52.314;8.910;2023-07-13T06:41:00;22.20;99.90
30308;DHT22;17114;52.314;8.910;2023-07-13T06:43:27;22.30;99.90
30308;DHT22;17114;52.314;8.910;2023-07-13T06:45:55;22.30;99.90
30308;DHT22;17114;52.314;8.910;2023-07-13T06:48:22;22.50;99.90
30308;DHT22;17114;52.314;8.910;2023-07-13T06:50:50;22.70;99.90
30308;DHT22;17114;52.314;8.910;2023-07-13T06:53:18;22.60;99.90
30308;DHT22;17114;52.314;8.910;2023-07-13T06:55:46;22.40;99.90
30308;DHT22;17114;52.314;8.910;2023-07-13T06:58:14;22.40;99.90
30308;DHT22;17114;52.314;8.910;2023-07-13T07:00:41;22.60;99.90
30308;DHT22;17114;52.314;8.910;2023-07-13T07:03:08;23.20;99.90
30308;DHT22;17114;52.314;8.910;2023-07-13T07:05:36;23.80;99.90
30308;DHT22;17114;52.314;8.910;2023-07-13T07:08:02;23.80;99.90
30308;DHT22;17114;52.314;8.910;2023-07-13T07:10:30;23.60;99.90
30308;DHT22;17114;52.314;8.910;2023-07-13T07:12:58;23.80;99.90
30308;DHT22;17114;52.314;8.910;2023-07-13T07:15:25;24.00;99.90
30308;DHT22;17114;52.314;8.910;2023-07-13T07:17:52;24.00;99.90
30308;DHT22;17114;52.314;8.910;2023-07-13T07:20:21;24.10;99.90
30308;DHT22;17114;52.314;8.910;2023-07-13T07:22:48;23.90;99.90
30308;DHT22;17114;52.314;8.910;2023-07-13T07:25:15;24.00;99.90
30308;DHT22;17114;52.314;8.910;2023-07-13T07:27:42;23.60;99.90
30308;DHT22;17114;52.314;8.910;2023-07-13T07:30:12;23.20;99.90
30308;DHT22;17114;52.314;8.910;2023-07-13T07:32:42;22.70;99.90
30308;DHT22;17114;52.314;8.910;2023-07-13T07:35:12;22.20;99.90
30308;DHT22;17114;52.314;8.910;2023-07-13T07:37:39;22.10;99.90
30308;DHT22;17114;52.314;8.910;2023-07-13T07:40:09;21.80;99.90
30308;DHT22;17114;52.314;8.910;2023-07-13T07:42:38;21.70;99.90
30308;DHT22;17114;52.314;8.910;2023-07-13T07:45:06;21.90;99.90
30308;DHT22;17114;52.314;8.910;2023-07-13T07:47:33;21.80;99.90
30308;DHT22;17114;52.314;8.910;2023-07-13T07:49:59;21.70;99.90
30308;DHT22;17114;52.314;8.910;2023-07-13T07:52:26;21.80;99.90
30308;DHT22;17114;52.314;8.910;2023-07-13T07:54:53;22.20;99.90
30308;DHT22;17114;52.314;8.910;2023-07-13T07:57:23;22.80;99.90
30308;DHT22;17114;52.314;8.910;2023-07-13T07:59:53;23.00;99.90
30308;DHT22;17114;52.314;8.910;2023-07-13T08:02:23;23.00;99.90
30308;DHT22;17114;52.314;8.910;2023-07-13T08:04:55;23.10;99.90
30308;DHT22;17114;52.314;8.910;2023-07-13T08:07:25;23.50;99.90
30308;DHT22;17114;52.314;8.910;2023-07-13T08:09:53;23.70;99.90
30308;DHT22;17114;52.314;8.910;2023-07-13T08:12:19;23.30;99.90
30308;DHT22;17114;52.314;8.910;2023-07-13T08:15:10;23.20;99.90
30308;DHT22;17114;52.314;8.910;2023-07-13T08:17:37;23.40;99.90
30308;DHT22;17114;52.314;8.910;2023-07-13T08:20:05;23.70;99.90
30308;DHT22;17114;52.314;8.910;2023-07-13T08:22:32;24.20;99.90
30308;DHT22;17114;52.314;8.910;2023-07-13T08:24:59;24.50;99.90
30308;DHT22;17114;52.314;8.910;2023-07-13T08:27:27;24.80;99.90
30308;DHT22;17114;52.314;8.910;2023-07-13T08:29:54;24.70;99.90
30308;DHT22;17114;52.314;8.910;2023-07-13T08:32:22;24.30;99.90
30308;DHT22;17114;52.314;8.910;2023-07-13T08:34:50;24.20;99.90
30308;DHT22;17114;52.314;8.910;2023-07-13T08:37:17;24.00;99.90
30308;DHT22;17114;52.314;8.910;2023-07-13T08:39:44;23.70;99.90
30308;DHT22;17114;52.314;8.910;2023-07-13T08:45:03;24.20;99.90
30308;DHT22;17114;52.314;8.910;2023-07-13T08:47:33;24.30;99.90
30308;DHT22;17114;52.314;8.910;2023-07-13T08:50:02;24.80;99.90
30308;DHT22;17114;52.314;8.910;2023-07-13T08:52:39;25.30;99.90
30308;DHT22;17114;52.314;8.910;2023-07-13T08:55:17;25.40;99.90
30308;DHT22;17114;52.314;8.910;2023-07-13T08:57:48;25.50;99.90
30308;DHT22;17114;52.314;8.910;2023-07-13T09:00:17;25.10;99.90
30308;DHT22;17114;52.314;8.910;2023-07-13T09:05:38;25.00;99.90
30308;DHT22;17114;52.314;8.910;2023-07-13T09:16:25;25.30;99.90
30308;DHT22;17114;52.314;8.910;2023-07-13T09:18:58;25.30;99.90
30308;DHT22;17114;52.314;8.910;2023-07-13T09:21:36;25.40;99.90
30308;DHT22;17114;52.314;8.910;2023-07-13T09:24:36;25.50;99.90
30308;DHT22;17114;52.314;8.910;2023-07-13T09:27:15;25.90;99.90
30308;DHT22;17114;52.314;8.910;2023-07-13T09:29:50;26.40;99.90
30308;DHT22;17114;52.314;8.910;2023-07-13T09:32:21;26.40;99.90
30308;DHT22;17114;52.314;8.910;2023-07-13T09:34:54;26.20;99.90
30308;DHT22;17114;52.314;8.910;2023-07-13T09:37:27;26.40;99.90
30308;DHT22;17114;52.314;8.910;2023-07-13T09:39:56;26.00;99.90
30308;DHT22;17114;52.314;8.910;2023-07-13T09:42:25;26.40;99.90
30308;DHT22;17114;52.314;8.910;2023-07-13T09:44:58;26.60;99.90
30308;DHT22;17114;52.314;8.910;2023-07-13T09:47:27;26.10;99.90
30308;DHT22;17114;52.314;8.910;2023-07-13T09:50:06;26.10;99.90
30308;DHT22;17114;52.314;8.910;2023-07-13T09:52:47;26.50;99.90
30308;DHT22;17114;52.314;8.910;2023-07-13T09:57:52;26.20;99.90
30308;DHT22;17114;52.314;8.910;2023-07-13T10:00:27;26.20;99.90
30308;DHT22;17114;52.314;8.910;2023-07-13T10:03:33;26.10;99.90
30308;DHT22;17114;52.314;8.910;2023-07-13T10:05:53;25.90;99.90
30308;DHT22;17114;52.314;8.910;2023-07-13T10:11:02;25.30;99.90
30308;DHT22;17114;52.314;8.910;2023-07-13T10:13:37;24.90;99.90
30308;DHT22;17114;52.314;8.910;2023-07-13T10:16:07;24.60;99.90
30308;DHT22;17114;52.314;8.910;2023-07-13T10:18:46;25.10;99.90
30308;DHT22;17114;52.314;8.910;2023-07-13T10:21:19;25.40;99.90
30308;DHT22;17114;52.314;8.910;2023-07-13T10:24:23;25.80;99.90
30308;DHT22;17114;52.314;8.910;2023-07-13T10:30:19;25.80;99.90
30308;DHT22;17114;52.314;8.910;2023-07-13T10:32:47;25.80;99.90
30308;DHT22;17114;52.314;8.910;2023-07-13T10:35:17;26.10;99.90
30308;DHT22;17114;52.314;8.910;2023-07-13T10:38:06;26.50;99.90
30308;DHT22;17114;52.314;8.910;2023-07-13T10:40:48;26.70;99.90
30308;DHT22;17114;52.314;8.910;2023-07-13T10:43:24;26.80;99.90
30308;DHT22;17114;52.314;8.910;2023-07-13T10:45:52;26.10;99.90
30308;DHT22;17114;52.314;8.910;2023-07-13T10:48:22;25.60;99.90
30308;DHT22;17114;52.314;8.910;2023-07-13T10:50:51;25.50;99.90
30308;DHT22;17114;52.314;8.910;2023-07-13T10:53:31;25.60;99.90
30308;DHT22;17114;52.314;8.910;2023-07-13T10:56:22;25.70;99.90
30308;DHT22;17114;52.314;8.910;2023-07-13T10:59:02;25.60;99.90
30308;DHT22;17114;52.314;8.910;2023-07-13T11:01:46;24.90;99.90
30308;DHT22;17114;52.314;8.910;2023-07-13T11:04:15;24.50;99.90
30308;DHT22;17114;52.314;8.910;2023-07-13T11:06:43;24.50;99.90
30308;DHT22;17114;52.314;8.910;2023-07-13T11:09:32;24.80;99.90
30308;DHT22;17114;52.314;8.910;2023-07-13T11:12:01;24.90;99.90
30308;DHT22;17114;52.314;8.910;2023-07-13T11:14:34;24.90;99.90
30308;DHT22;17114;52.314;8.910;2023-07-13T11:22:47;23.80;99.90
30308;DHT22;17114;52.314;8.910;2023-07-13T11:30:38;23.50;99.90
30308;DHT22;17114;52.314;8.910;2023-07-13T11:36:13;23.30;99.90
30308;DHT22;17114;52.314;8.910;2023-07-13T11:38:43;23.10;99.90
30308;DHT22;17114;52.314;8.910;2023-07-13T11:41:23;22.90;99.90
30308;DHT22;17114;52.314;8.910;2023-07-13T11:43:54;23.40;99.90
30308;DHT22;17114;52.314;8.910;2023-07-13T11:46:24;24.10;99.90
30308;DHT22;17114;52.314;8.910;2023-07-13T11:48:52;24.60;99.90
30308;DHT22;17114;52.314;8.910;2023-07-13T11:51:28;24.70;99.90
30308;DHT22;17114;52.314;8.910;2023-07-13T11:54:01;25.10;99.90
30308;DHT22;17114;52.314;8.910;2023-07-13T11:56:29;25.40;99.90
30308;DHT22;17114;52.314;8.910;2023-07-13T11:59:04;25.50;99.90
30308;DHT22;17114;52.314;8.910;2023-07-13T12:01:32;25.50;99.90
30308;DHT22;17114;52.314;8.910;2023-07-13T12:04:02;25.50;99.90
30308;DHT22;17114;52.314;8.910;2023-07-13T12:06:34;25.80;99.90
30308;DHT22;17114;52.314;8.910;2023-07-13T12:09:14;25.80;99.90
30308;DHT22;17114;52.314;8.910;2023-07-13T12:11:45;25.70;99.90
30308;DHT22;17114;52.314;8.910;2023-07-13T12:14:16;25.80;99.90
30308;DHT22;17114;52.314;8.910;2023-07-13T12:16:44;26.10;99.90
30308;DHT22;17114;52.314;8.910;2023-07-13T12:19:29;25.90;99.90
30308;DHT22;17114;52.314;8.910;2023-07-13T12:21:58;26.00;99.90
30308;DHT22;17114;52.314;8.910;2023-07-13T12:24:25;25.70;99.90
30308;DHT22;17114;52.314;8.910;2023-07-13T12:26:54;25.10;99.90
30308;DHT22;17114;52.314;8.910;2023-07-13T12:29:21;24.60;99.90
30308;DHT22;17114;52.314;8.910;2023-07-13T12:31:50;24.80;99.90
30308;DHT22;17114;52.314;8.910;2023-07-13T12:34:19;25.00;99.90
30308;DHT22;17114;52.314;8.910;2023-07-13T12:39:35;24.60;99.90
30308;DHT22;17114;52.314;8.910;2023-07-13T12:47:43;24.50;99.90
30308;DHT22;17114;52.314;8.910;2023-07-13T12:50:19;24.80;99.90
30308;DHT22;17114;52.314;8.910;2023-07-13T12:52:54;24.70;99.90
30308;DHT22;17114;52.314;8.910;2023-07-13T12:55:23;24.50;99.90
30308;DHT22;17114;52.314;8.910;2023-07-13T12:57:54;24.10;99.90
30308;DHT22;17114;52.314;8.910;2023-07-13T13:00:23;23.30;99.90
30308;DHT22;17114;52.314;8.910;2023-07-13T13:02:53;22.50;99.90
30308;DHT22;17114;52.314;8.910;2023-07-13T13:05:41;21.90;99.90
30308;DHT22;17114;52.314;8.910;2023-07-13T13:08:11;21.50;99.90
30308;DHT22;17114;52.314;8.910;2023-07-13T13:10:39;21.70;99.90
30308;DHT22;17114;52.314;8.910;2023-07-13T13:13:06;22.30;99.90
30308;DHT22;17114;52.314;8.910;2023-07-13T13:15:33;22.30;99.90
30308;DHT22;17114;52.314;8.910;2023-07-13T13:18:00;22.10;99.90
30308;DHT22;17114;52.314;8.910;2023-07-13T13:20:27;21.80;99.90
30308;DHT22;17114;52.314;8.910;2023-07-13T13:22:54;21.40;99.90
30308;DHT22;17114;52.314;8.910;2023-07-13T13:25:22;21.30;99.90
30308;DHT22;17114;52.314;8.910;2023-07-13T13:27:49;21.00;99.90
30308;DHT22;17114;52.314;8.910;2023-07-13T13:30:17;20.70;99.90
30308;DHT22;17114;52.314;8.910;2023-07-13T13:32:46;20.40;99.90
30308;DHT22;17114;52.314;8.910;2023-07-13T13:35:18;20.10;99.90
30308;DHT22;17114;52.314;8.910;2023-07-13T13:37:46;19.80;99.90
30308;DHT22;17114;52.314;8.910;2023-07-13T13:40:20;19.50;99.90
30308;DHT22;17114;52.314;8.910;2023-07-13T13:42:47;19.20;99.90
30308;DHT22;17114;52.314;8.910;2023-07-13T13:45:13;19.00;99.90
30308;DHT22;17114;52.314;8.910;2023-07-13T13:47:41;18.70;99.90
30308;DHT22;17114;52.314;8.910;2023-07-13T13:50:16;18.30;99.90
30308;DHT22;17114;52.314;8.910;2023-07-13T13:52:44;18.00;99.90
30308;DHT22;17114;52.314;8.910;2023-07-13T13:55:15;17.80;99.90
30308;DHT22;17114;52.314;8.910;2023-07-13T13:57:42;17.60;99.90
30308;DHT22;17114;52.314;8.910;2023-07-13T14:00:10;17.40;99.90
30308;DHT22;17114;52.314;8.910;2023-07-13T14:02:48;17.20;99.90
30308;DHT22;17114;52.314;8.910;2023-07-13T14:05:21;16.90;99.90
30308;DHT22;17114;52.314;8.910;2023-07-13T14:07:49;16.70;99.90
30308;DHT22;17114;52.314;8.910;2023-07-13T14:10:18;16.60;99.90
30308;DHT22;17114;52.314;8.910;2023-07-13T14:12:48;16.40;99.90
30308;DHT22;17114;52.314;8.910;2023-07-13T14:15:28;16.30;99.90
30308;DHT22;17114;52.314;8.910;2023-07-13T14:17:57;16.20;99.90
30308;DHT22;17114;52.314;8.910;2023-07-13T14:20:25;16.10;99.90
30308;DHT22;17114;52.314;8.910;2023-07-13T14:22:53;16.10;99.90
30308;DHT22;17114;52.314;8.910;2023-07-13T14:25:21;16.10;99.90
30308;DHT22;17114;52.314;8.910;2023-07-13T14:27:55;16.10;99.90
30308;DHT22;17114;52.314;8.910;2023-07-13T14:30:25;16.10;99.90
30308;DHT22;17114;52.314;8.910;2023-07-13T14:32:52;16.20;99.90
30308;DHT22;17114;52.314;8.910;2023-07-13T14:35:21;16.30;99.90
30308;DHT22;17114;52.314;8.910;2023-07-13T14:37:50;16.40;99.90
30308;DHT22;17114;52.314;8.910;2023-07-13T14:40:28;16.70;99.90
30308;DHT22;17114;52.314;8.910;2023-07-13T14:42:55;16.90;99.90
30308;DHT22;17114;52.314;8.910;2023-07-13T14:45:22;17.20;99.90
30308;DHT22;17114;52.314;8.910;2023-07-13T14:47:49;17.60;99.90
30308;DHT22;17114;52.314;8.910;2023-07-13T14:50:34;18.00;99.90
30308;DHT22;17114;52.314;8.910;2023-07-13T14:53:02;18.30;99.90
30308;DHT22;17114;52.314;8.910;2023-07-13T14:55:29;18.30;99.90
30308;DHT22;17114;52.314;8.910;2023-07-13T14:57:56;18.50;99.90
30308;DHT22;17114;52.314;8.910;2023-07-13T15:00:24;18.30;99.90
30308;DHT22;17114;52.314;8.910;2023-07-13T15:02:53;18.30;99.90
30308;DHT22;17114;52.314;8.910;2023-07-13T15:05:24;18.10;99.90
30308;DHT22;17114;52.314;8.910;2023-07-13T15:07:53;18.10;99.90
30308;DHT22;17114;52.314;8.910;2023-07-13T15:10:28;17.90;99.90
30308;DHT22;17114;52.314;8.910;2023-07-13T15:15:47;17.70;99.90
30308;DHT22;17114;52.314;8.910;2023-07-13T15:18:17;17.60;99.90
30308;DHT22;17114;52.314;8.910;2023-07-13T15:20:45;17.50;99.90
30308;DHT22;17114;52.314;8.910;2023-07-13T15:23:17;17.40;99.90
30308;DHT22;17114;52.314;8.910;2023-07-13T15:25:45;17.20;99.90
30308;DHT22;17114;52.314;8.910;2023-07-13T15:28:12;17.10;99.90
30308;DHT22;17114;52.314;8.910;2023-07-13T15:30:51;17.00;99.90
30308;DHT22;17114;52.314;8.910;2023-07-13T15:33:28;17.00;99.90
30308;DHT22;17114;52.314;8.910;2023-07-13T15:35:56;17.00;99.90
30308;DHT22;17114;52.314;8.910;2023-07-13T15:38:27;17.10;99.90
30308;DHT22;17114;52.314;8.910;2023-07-13T15:40:55;17.10;99.90
30308;DHT22;17114;52.314;8.910;2023-07-13T15:43:23;17.10;99.90
30308;DHT22;17114;52.314;8.910;2023-07-13T15:45:50;17.20;99.90
30308;DHT22;17114;52.314;8.910;2023-07-13T15:48:23;17.30;99.90
30308;DHT22;17114;52.314;8.910;2023-07-13T15:50:53;17.40;99.90
30308;DHT22;17114;52.314;8.910;2023-07-13T15:53:24;17.50;99.90
30308;DHT22;17114;52.314;8.910;2023-07-13T15:55:52;17.60;99.90
30308;DHT22;17114;52.314;8.910;2023-07-13T15:58:19;17.60;99.90
30308;DHT22;17114;52.314;8.910;2023-07-13T16:00:47;17.70;99.90
30308;DHT22;17114;52.314;8.910;2023-07-13T16:03:19;17.60;99.90
30308;DHT22;17114;52.314;8.910;2023-07-13T16:05:46;17.60;99.90
30308;DHT22;17114;52.314;8.910;2023-07-13T16:08:53;17.60;99.90
30308;DHT22;17114;52.314;8.910;2023-07-13T16:11:25;17.60;99.90
30308;DHT22;17114;52.314;8.910;2023-07-13T16:13:53;17.60;99.90
30308;DHT22;17114;52.314;8.910;2023-07-13T16:16:23;17.50;99.90
30308;DHT22;17114;52.314;8.910;2023-07-13T16:18:53;17.60;99.90
30308;DHT22;17114;52.314;8.910;2023-07-13T16:21:24;17.60;99.90
30308;DHT22;17114;52.314;8.910;2023-07-13T16:23:52;17.60;99.90
30308;DHT22;17114;52.314;8.910;2023-07-13T16:26:35;17.50;99.90
30308;DHT22;17114;52.314;8.910;2023-07-13T16:29:15;17.40;99.90
30308;DHT22;17114;52.314;8.910;2023-07-13T16:32:01;17.30;99.90
30308;DHT22;17114;52.314;8.910;2023-07-13T16:34:33;17.30;99.90
30308;DHT22;17114;52.314;8.910;2023-07-13T16:37:02;17.30;99.90
30308;DHT22;17114;52.314;8.910;2023-07-13T16:39:31;17.40;99.90
30308;DHT22;17114;52.314;8.910;2023-07-13T16:41:59;17.40;99.90